Sonora Municipal Airport
KSOA : now visible

Airfield :











YOU CAN JOIN US ON...

 
LOGIN :

Register | Disclaimer

   EN    FR    IT 

 









Legend :    VFR   Marginal VFR   IFR   Intensive IFR   Very Intensive IFR
Visi :
Ceiling :
>= 8 km
>= 3000ft
5 to 8 km
1000 to 3000 ft
1500m to 5 km
500 to 1000 ft
800 to 1500m
200 to 500 ft
< 800m
< 200 ft
Symbols :   Thunderstorms  Fog  Heavy snow  Heavy precipitations  Wind > 20 kt






- Airport Elevation : 2140 ft


KSOA - Sonora Municipal

CURRENT METAR :
  • 281235Z AUTO 00000KT 10SM CLR M05/M09 A3037 RMK AO2

EXPIRED METARs :
  • 281215Z AUTO 00000KT 10SM CLR M04/M08 A3037 RMK AO2
  • 281155Z AUTO 00000KT 10SM CLR M04/M08 A3036 RMK AO2
  • 281135Z AUTO 00000KT 10SM CLR M05/M08 A3035 RMK AO2
  • 281115Z AUTO 00000KT 10SM CLR M04/M08 A3036 RMK AO2
  • 281055Z AUTO 00000KT 10SM CLR M04/M08 A3036 RMK AO2
  • 281035Z AUTO 00000KT 10SM CLR M04/M09 A3036 RMK AO2
  • 281015Z AUTO 00000KT 10SM CLR M04/M08 A3036 RMK AO2
  • 280955Z AUTO 00000KT 10SM CLR M04/M08 A3035 RMK AO2

TAF KSOA
Valid from the 28 at 12:00 until the 29 at 12:00 UTC


281122Z 2812/2912 00000KT P6SM SCT250
FM281800 20007KT P6SM FEW250
FM290100 VRB02KT P6SM SCT250



MET'MAP, your aeronautical weather chart ! - Copyright ORBIFLY December 2007 - Disclaimer

ORBIFLY MET'MAP TEAM :

Programming & Development : Alexandra Zaïnal
Concept & original design : Baudouin d'Aumeries
Assistance for programming : Marc-Olivier Méhu
Technical & hardware support : Manuel Goepfert

Contact : metmap@orbifly.com




SOURCES & CREDITS :

   NOAA       Earth
Advisory